Time;durP1;ratioP1;P1;durP2;ratioP2;P2;SDS_P1;SDS_P2;PMS_P1;PMS_P2;Temp;Humidity;BMP_temperature;BMP_pressure;BME280_temperature;BME280_humidity;BME280_pressure;Samples;Min_cycle;Max_cycle;Signal;HPM_P1;HPM_P2
2022/06/02 04:02:49;;;;;;;4.80;3.22;;;;;;;14.87;100.00;100470.22;5411731;27;20132;-89
2022/06/02 04:06:12;;;;;;;5.05;3.58;;;;;;;14.79;100.00;100460.37;5371357;33;34387;-85
2022/06/02 04:09:25;;;;;;;3.75;3.30;;;;;;;14.80;100.00;100453.09;5379582;33;33678;-85
2022/06/02 04:16:48;;;;;;;5.87;3.60;;;;;;;14.76;100.00;100449.12;5379769;33;34478;-86
2022/06/02 04:20:34;;;;;;;4.85;3.50;;;;;;;14.72;100.00;100441.41;5379484;33;35357;-87
2022/06/02 04:23:56;;;;;;;5.07;3.50;;;;;;;14.74;100.00;100454.72;5379796;33;33907;-87
2022/06/02 04:27:17;;;;;;;4.07;3.67;;;;;;;14.79;100.00;100473.09;5386788;33;34915;-87
2022/06/02 04:30:31;;;;;;;3.83;3.50;;;;;;;14.91;100.00;100476.88;5368725;33;33186;-86
2022/06/02 04:33:40;;;;;;;4.00;3.45;;;;;;;14.98;100.00;100472.34;5365093;33;33552;-87
2022/06/02 04:37:02;;;;;;;5.67;3.70;;;;;;;15.06;100.00;100479.44;5379133;33;34285;-87
2022/06/02 04:40:29;;;;;;;4.05;3.70;;;;;;;15.15;100.00;100484.50;5379347;33;33785;-86
2022/06/02 04:44:13;;;;;;;4.20;3.67;;;;;;;15.27;100.00;100481.16;5378908;33;34830;-87
2022/06/02 04:47:48;;;;;;;4.62;4.05;;;;;;;15.31;100.00;100474.28;5378979;33;36126;-91
2022/06/02 04:51:08;;;;;;;4.12;3.72;;;;;;;15.40;100.00;100465.72;5366893;33;33937;-85
2022/06/02 04:54:17;;;;;;;;;;;;;;;15.54;100.00;100487.47;5379123;33;34107;-85
2022/06/02 04:57:33;;;;;;;4.10;3.70;;;;;;;15.63;100.00;100480.78;5379160;33;34143;-86
2022/06/02 05:01:07;;;;;;;4.03;3.60;;;;;;;15.78;100.00;100486.03;5378975;33;34469;-87
2022/06/02 05:04:35;;;;;;;4.07;3.67;;;;;;;15.86;100.00;100483.09;5360528;33;33862;-86
2022/06/02 05:07:50;;;;;;;4.12;3.72;;;;;;;15.92;100.00;100482.25;5360652;33;33656;-86
2022/06/02 05:11:15;;;;;;;5.00;4.50;;;;;;;15.95;100.00;100490.00;5360542;33;33902;-86
2022/06/02 05:14:42;;;;;;;7.20;5.43;;;;;;;15.98;100.00;100488.72;5360573;33;33985;-87
2022/06/02 05:18:03;;;;;;;6.43;4.65;;;;;;;16.02;99.66;100485.38;5347876;33;32430;-86
2022/06/02 05:21:47;;;;;;;5.72;5.10;;;;;;;16.02;100.00;100485.38;5359910;33;33817;-86
2022/06/02 05:25:19;;;;;;;5.57;4.80;;;;;;;16.04;99.95;100496.03;5347679;33;33769;-85
2022/06/02 05:28:28;;;;;;;6.62;4.93;;;;;;;16.10;99.45;100498.75;5346580;33;33257;-85
2022/06/02 05:32:01;;;;;;;5.60;4.20;;;;;;;16.26;96.94;100497.47;5359408;33;33917;-85
2022/06/02 05:35:34;;;;;;;5.15;3.87;;;;;;;16.47;96.44;100503.69;5362509;33;34643;-89
2022/06/02 05:39:11;;;;;;;4.30;3.60;;;;;;;16.67;94.34;100509.03;5361888;33;34161;-85
2022/06/02 05:42:28;;;;;;;3.58;3.05;;;;;;;16.76;92.51;100507.81;5345941;33;34218;-85
2022/06/02 05:45:51;;;;;;;3.80;3.45;;;;;;;16.87;91.21;100519.88;5358068;33;34454;-85
2022/06/02 05:49:07;;;;;;;3.50;3.20;;;;;;;16.91;91.27;100519.25;5362168;33;34234;-85
2022/06/02 05:52:47;;;;;;;3.17;2.97;;;;;;;16.94;89.04;100509.81;5362089;33;34330;-85
2022/06/02 05:55:53;;;;;;;3.22;3.00;;;;;;;16.95;88.69;100515.03;5362550;33;33971;-85
2022/06/02 05:59:18;;;;;;;3.85;3.00;;;;;;;16.87;89.51;100515.25;5360407;33;35325;-89
2022/06/02 06:02:39;;;;;;;4.03;3.12;;;;;;;16.84;89.10;100512.97;5362548;33;33897;-86
2022/06/02 06:05:50;;;;;;;4.60;3.15;;;;;;;16.83;89.30;100507.78;5364039;33;34280;-85
2022/06/02 06:09:24;;;;;;;3.62;3.33;;;;;;;16.87;89.06;100509.00;5374842;33;34433;-85
2022/06/02 06:12:42;;;;;;;3.45;3.08;;;;;;;16.89;89.79;100517.78;5363933;33;33776;-85
2022/06/02 06:16:04;;;;;;;3.70;3.33;;;;;;;17.00;87.83;100530.72;5364077;33;34462;-86
2022/06/02 06:19:45;;;;;;;4.03;2.87;;;;;;;17.21;86.56;100532.28;5367478;33;34745;-86
2022/06/02 06:23:15;;;;;;;3.83;3.00;;;;;;;17.49;87.67;100531.91;5416191;27;35402;31
2022/06/02 06:26:24;;;;;;;4.18;3.53;;;;;;;17.64;85.04;100531.59;5421593;27;35857;-84
2022/06/02 06:29:49;;;;;;;3.10;2.80;;;;;;;17.57;84.34;100534.34;5414483;27;35131;-85
2022/06/02 06:33:01;;;;;;;3.12;2.83;;;;;;;17.78;83.54;100529.63;5378861;33;35213;-86
2022/06/02 06:36:18;;;;;;;3.33;2.40;;;;;;;18.36;75.35;100532.84;5367504;33;34342;-85
2022/06/02 06:39:41;;;;;;;3.78;2.78;;;;;;;18.86;73.82;100550.19;5375851;33;34472;-85
2022/06/02 06:43:16;;;;;;;2.62;2.03;;;;;;;19.55;70.60;100554.28;5398362;27;35264;-84
2022/06/02 06:46:25;;;;;;;4.05;2.28;;;;;;;19.84;65.60;100558.09;5367665;33;34233;-85
2022/06/02 06:49:43;;;;;;;3.55;2.37;;;;;;;19.94;65.46;100563.78;5436743;27;35466;-84
2022/06/02 06:53:08;;;;;;;2.87;2.60;;;;;;;20.01;67.62;100562.87;5423620;27;36141;-89
2022/06/02 06:56:41;;;;;;;2.85;2.62;;;;;;;19.85;69.19;100564.38;5367472;33;33800;-85
2022/06/02 06:59:43;;;;;;;2.30;2.10;;;;;;;19.93;69.38;100556.66;5367701;33;34822;-85
2022/06/02 07:03:27;;;;;;;5.45;2.85;;;;;;;19.78;69.49;100560.94;5378897;33;34724;-86
2022/06/02 07:06:49;;;;;;;2.65;2.45;;;;;;;19.73;70.89;100560.78;5353947;33;34891;-86
2022/06/02 07:10:00;;;;;;;2.65;2.30;;;;;;;19.78;68.93;100558.19;5345035;33;33754;-85
2022/06/02 07:13:28;;;;;;;2.40;2.20;;;;;;;19.96;68.05;100565.47;5360305;33;33622;-85
2022/06/02 07:16:48;;;;;;;4.20;2.30;;;;;;;20.25;67.36;100575.50;5362455;33;35494;-85
2022/06/02 07:20:06;;;;;;;2.45;2.22;;;;;;;20.73;65.16;100568.13;5351423;33;37423;-86
2022/06/02 07:23:31;;;;;;;2.30;2.03;;;;;;;20.81;63.06;100568.56;5358996;33;34143;-85
2022/06/02 07:26:37;;;;;;;2.30;2.10;;;;;;;20.95;62.90;100569.16;5362724;33;34039;-85
2022/06/02 07:30:03;;;;;;;2.72;1.77;;;;;;;21.14;61.33;100560.75;5362855;33;34002;-85
2022/06/02 07:33:28;;;;;;;1.58;1.48;;;;;;;21.21;63.46;100562.28;5362995;33;34297;-85
2022/06/02 07:37:19;;;;;;;2.15;1.95;;;;;;;21.27;60.95;100563.22;5363219;33;34801;-85
2022/06/02 07:41:03;;;;;;;3.15;1.40;;;;;;;21.13;62.19;100551.72;5331802;33;33996;-85
2022/06/02 07:44:25;;;;;;;2.20;1.77;;;;;;;21.30;59.87;100551.78;5363221;33;34413;-85
2022/06/02 07:48:01;;;;;;;2.12;1.70;;;;;;;21.44;59.25;100550.44;5361982;33;34258;-87
2022/06/02 07:51:30;;;;;;;3.08;2.67;;;;;;;21.66;56.98;100561.50;5360812;33;35503;-84
2022/06/02 07:54:47;;;;;;;2.40;2.20;;;;;;;21.94;58.13;100565.28;5357915;33;33782;-85
2022/06/02 07:58:06;;;;;;;3.28;2.40;;;;;;;22.54;57.39;100563.78;5357433;33;33285;-85
2022/06/02 08:01:18;;;;;;;2.37;2.17;;;;;;;22.98;56.09;100552.84;5360197;33;33918;-85
2022/06/02 08:04:39;;;;;;;2.33;2.12;;;;;;;22.71;53.76;100555.50;5360819;33;34024;-87
2022/06/02 08:07:53;;;;;;;2.62;2.42;;;;;;;22.65;57.56;100557.34;5347792;33;33884;-85
2022/06/02 08:11:13;;;;;;;2.17;1.95;;;;;;;22.56;56.55;100569.84;5359710;33;33523;-85
2022/06/02 08:14:30;;;;;;;3.08;2.05;;;;;;;22.69;58.73;100566.72;5362071;33;34267;-85
2022/06/02 08:17:55;;;;;;;2.78;2.33;;;;;;;23.21;55.67;100571.81;5353146;33;35380;-85
2022/06/02 08:20:58;;;;;;;3.50;2.30;;;;;;;23.49;54.14;100572.69;5346272;33;33590;-85
2022/06/02 08:24:33;;;;;;;2.40;2.10;;;;;;;23.38;52.95;100574.47;5351276;33;35743;-85
2022/06/02 08:28:00;;;;;;;2.08;1.87;;;;;;;23.38;52.57;100577.22;5357143;33;35704;-84
2022/06/02 08:31:34;;;;;;;2.83;2.00;;;;;;;23.31;54.16;100568.34;5367444;33;34356;-85
2022/06/02 08:34:52;;;;;;;3.15;1.92;;;;;;;23.14;55.83;100568.44;5372084;33;35378;-85
2022/06/02 08:38:18;;;;;;;12.97;2.70;;;;;;;22.85;56.78;100571.34;5371192;33;34393;-85
2022/06/02 08:41:55;;;;;;;2.78;2.33;;;;;;;22.51;56.68;100573.34;5372940;33;34195;-86
2022/06/02 08:45:29;;;;;;;2.15;1.98;;;;;;;22.38;58.28;100574.53;5374011;33;35003;-85
2022/06/02 08:48:54;;;;;;;2.08;1.98;;;;;;;22.70;56.85;100570.28;5344733;33;34114;-85
2022/06/02 08:52:34;;;;;;;2.42;2.12;;;;;;;23.04;55.92;100566.37;5368530;33;33997;-85
2022/06/02 08:56:19;;;;;;;2.72;2.30;;;;;;;23.25;54.35;100572.13;5355861;33;33886;-85
2022/06/02 08:59:31;;;;;;;2.78;2.20;;;;;;;22.90;54.74;100572.47;5342434;33;34047;-85
2022/06/02 09:02:57;;;;;;;2.47;2.17;;;;;;;23.12;54.71;100570.59;5356488;33;34018;-85
2022/06/02 09:06:18;;;;;;;2.10;1.90;;;;;;;23.67;53.62;100582.47;5371064;33;34287;-85
2022/06/02 09:09:58;;;;;;;2.17;1.70;;;;;;;23.80;52.18;100571.06;5372213;33;34253;-85
2022/06/02 09:13:04;;;;;;;1.62;1.50;;;;;;;23.91;51.05;100559.06;5377708;33;34846;-85
2022/06/02 09:16:21;;;;;;;1.98;1.83;;;;;;;24.17;49.99;100570.28;5376355;33;35081;-85
2022/06/02 09:19:52;;;;;;;2.22;1.65;;;;;;;23.67;51.33;100580.56;5378624;33;34186;-86
2022/06/02 09:23:15;;;;;;;1.73;1.55;;;;;;;23.97;50.74;100585.53;5379783;33;34303;-85
2022/06/02 09:26:58;;;;;;;2.90;1.73;;;;;;;24.09;50.78;100582.59;5378954;33;32929;-85
2022/06/02 09:30:27;;;;;;;2.95;2.05;;;;;;;24.51;50.93;100581.84;5360342;33;33947;-84
2022/06/02 09:34:18;;;;;;;1.60;1.50;;;;;;;24.56;49.52;100584.62;5358146;33;34239;-85
2022/06/02 09:37:39;;;;;;;1.60;1.50;;;;;;;24.89;48.90;100577.06;5301386;33;33811;-85
2022/06/02 09:41:39;;;;;;;1.60;1.42;;;;;;;25.23;49.64;100577.53;5354913;33;33988;-85
2022/06/02 09:45:16;;;;;;;2.40;2.00;;;;;;;25.38;46.49;100573.16;5346281;33;33554;-85
2022/06/02 09:48:43;;;;;;;2.10;1.52;;;;;;;25.47;47.94;100577.88;5345709;33;33674;-85
2022/06/02 09:52:08;;;;;;;2.60;1.42;;;;;;;25.79;46.74;100580.41;5361581;33;34305;-85
2022/06/02 09:55:17;;;;;;;1.87;1.30;;;;;;;26.15;49.84;100574.09;5373026;33;36864;-88
2022/06/02 09:58:41;;;;;;;2.15;1.67;;;;;;;26.54;45.83;100574.38;5373753;33;33994;-85
2022/06/02 10:01:44;;;;;;;1.77;1.42;;;;;;;26.82;45.60;100572.91;5373683;33;34471;-85
2022/06/02 10:05:13;;;;;;;1.50;1.40;;;;;;;26.78;44.47;100571.81;5363227;33;34449;-85
2022/06/02 10:08:26;;;;;;;1.73;1.40;;;;;;;26.55;45.62;100562.19;5380694;33;35364;-85
2022/06/02 10:11:47;;;;;;;1.87;1.77;;;;;;;26.60;44.91;100566.91;5380976;33;34317;-85
2022/06/02 10:15:08;;;;;;;1.85;1.75;;;;;;;26.63;45.00;100558.87;5380465;33;34217;-86
2022/06/02 10:18:29;;;;;;;1.42;1.33;;;;;;;27.01;45.08;100555.72;5378786;33;35230;-86
2022/06/02 10:21:52;;;;;;;1.67;1.58;;;;;;;27.32;44.37;100557.25;5364916;33;34188;-86
2022/06/02 10:25:07;;;;;;;1.20;1.10;;;;;;;27.82;44.17;100562.75;5365729;33;33982;-89
2022/06/02 10:28:42;;;;;;;2.42;2.22;;;;;;;27.96;42.02;100549.06;5360831;33;34085;-86
2022/06/02 10:32:21;;;;;;;1.75;1.55;;;;;;;27.93;41.94;100552.41;5353331;33;34815;-86
2022/06/02 10:35:45;;;;;;;1.58;1.35;;;;;;;28.25;42.99;100560.13;5354825;33;34250;-85
2022/06/02 10:39:01;;;;;;;1.65;1.35;;;;;;;27.79;42.83;100564.16;5341358;33;33154;-85
2022/06/02 10:42:20;;;;;;;1.92;1.48;;;;;;;27.01;44.83;100551.00;5345159;33;34358;-86
2022/06/02 10:45:58;;;;;;;2.12;1.62;;;;;;;26.87;46.40;100559.06;5353289;33;34757;-85
2022/06/02 10:49:23;;;;;;;1.60;1.40;;;;;;;27.30;44.48;100548.41;5359332;33;33866;-86
2022/06/02 10:52:54;;;;;;;1.40;1.30;;;;;;;28.08;42.98;100556.97;5363627;33;33889;-85
2022/06/02 10:56:08;;;;;;;2.12;1.55;;;;;;;27.57;43.93;100555.41;5359329;33;32505;-85
2022/06/02 10:59:40;;;;;;;1.65;1.55;;;;;;;28.13;42.79;100551.41;5370352;33;34445;-85
2022/06/02 11:02:57;;;;;;;1.90;1.80;;;;;;;27.72;44.25;100555.31;5364057;33;33988;-85
2022/06/02 11:06:28;;;;;;;1.70;1.60;;;;;;;27.36;46.45;100563.84;5360206;33;34512;-85
2022/06/02 11:10:10;;;;;;;2.10;1.58;;;;;;;28.77;42.45;100560.47;5361296;33;35431;-85
2022/06/02 11:13:32;;;;;;;1.80;1.70;;;;;;;30.36;40.21;100554.25;5351055;33;34126;-85
2022/06/02 11:17:04;;;;;;;1.60;1.50;;;;;;;31.10;36.63;100548.63;5362067;33;33952;-85
2022/06/02 11:20:25;;;;;;;1.60;1.50;;;;;;;31.90;35.69;100551.81;5340803;33;34495;-85
2022/06/02 11:23:59;;;;;;;1.37;1.27;;;;;;;32.19;34.69;100544.97;5360730;33;33997;-85
2022/06/02 11:27:41;;;;;;;1.67;1.58;;;;;;;32.60;34.14;100535.53;5364298;33;34129;-85
2022/06/02 11:30:59;;;;;;;1.58;1.48;;;;;;;33.77;32.01;100545.91;5356880;33;35330;-89
2022/06/02 11:34:26;;;;;;;1.83;1.73;;;;;;;33.66;32.33;100547.41;5358062;33;33773;-86
2022/06/02 11:37:44;;;;;;;1.23;1.20;;;;;;;33.96;31.29;100548.38;5363084;33;35282;-86
2022/06/02 11:41:25;;;;;;;1.42;1.33;;;;;;;34.21;30.37;100548.66;5365448;33;33750;-85
2022/06/02 11:45:00;;;;;;;1.37;1.27;;;;;;;34.01;29.75;100539.78;5361737;33;33727;-86
2022/06/02 11:48:17;;;;;;;1.60;1.50;;;;;;;35.30;29.14;100547.97;5360776;33;32740;-86
2022/06/02 11:51:47;;;;;;;1.05;0.98;;;;;;;36.31;27.71;100552.53;5360085;33;33911;-85
2022/06/02 11:55:09;;;;;;;1.77;1.20;;;;;;;36.88;25.67;100548.03;5350220;33;32870;-86
2022/06/02 11:58:18;;;;;;;1.35;1.30;;;;;;;35.25;27.87;100555.75;5350909;33;32200;-87
2022/06/02 12:01:33;;;;;;;1.55;1.00;;;;;;;36.00;27.28;100553.81;5395563;27;33228;-87
2022/06/02 12:04:52;;;;;;;1.08;0.98;;;;;;;36.55;26.38;100548.97;5364636;33;33009;-87
2022/06/02 12:08:13;;;;;;;1.05;0.95;;;;;;;37.97;24.39;100540.56;5380409;33;33752;-86
2022/06/02 12:11:28;;;;;;;1.37;1.08;;;;;;;36.07;25.96;100548.50;5371874;33;34201;-86
2022/06/02 12:14:55;;;;;;;1.00;1.00;;;;;;;34.99;28.06;100551.97;5349818;33;32491;-86
2022/06/02 12:18:26;;;;;;;0.77;0.77;;;;;;;36.50;25.55;100541.56;5361254;33;35491;-86
2022/06/02 12:21:40;;;;;;;1.00;1.00;;;;;;;37.63;24.06;100547.56;5367970;33;34990;-86
2022/06/02 12:25:22;;;;;;;0.88;0.88;;;;;;;37.58;23.54;100547.81;5364448;33;34364;-87
2022/06/02 12:28:52;;;;;;;0.60;0.60;;;;;;;37.32;24.37;100548.22;5359941;33;34031;-86
2022/06/02 12:32:28;;;;;;;0.80;0.80;;;;;;;38.73;22.41;100551.75;5345594;33;34101;-86
2022/06/02 12:35:58;;;;;;;0.82;0.82;;;;;;;38.34;22.66;100548.75;5361219;33;34869;-86
2022/06/02 12:39:04;;;;;;;0.62;0.62;;;;;;;38.63;21.56;100538.25;5344937;33;32400;-86
2022/06/02 12:42:39;;;;;;;1.02;0.60;;;;;;;39.83;21.11;100539.38;5362008;33;34644;-86
2022/06/02 12:45:45;;;;;;;0.77;0.77;;;;;;;39.74;21.66;100541.59;5319921;33;34282;-86
2022/06/02 12:49:14;;;;;;;0.60;0.60;;;;;;;39.83;20.25;100552.66;5353852;33;33274;-85
2022/06/02 12:52:49;;;;;;;0.60;0.60;;;;;;;40.61;19.41;100550.47;5345862;33;34169;-86
2022/06/02 12:56:08;;;;;;;1.02;0.60;;;;;;;40.43;19.61;100555.00;5347621;33;34127;-85
2022/06/02 12:59:32;;;;;;;0.40;0.40;;;;;;;40.85;18.83;100562.56;5358654;33;33878;-86
2022/06/02 13:02:40;;;;;;;0.50;0.50;;;;;;;41.28;18.19;100557.59;5355635;33;34394;-86
2022/06/02 13:05:56;;;;;;;0.65;0.57;;;;;;;41.41;18.29;100558.97;5353405;33;166789;-86
2022/06/02 13:09:14;;;;;;;0.40;0.40;;;;;;;41.54;17.41;100560.38;5353107;33;34521;-86
2022/06/02 13:12:46;;;;;;;0.50;0.50;;;;;;;40.58;18.61;100554.06;5358901;33;34208;-88
2022/06/02 13:16:20;;;;;;;0.32;0.32;;;;;;;40.49;18.23;100564.78;5347317;33;34996;-86
2022/06/02 13:19:59;;;;;;;0.50;0.50;;;;;;;41.08;18.09;100557.72;5350531;33;34168;-85
2022/06/02 13:23:37;;;;;;;0.77;0.50;;;;;;;40.42;18.90;100554.16;5294254;33;34321;-86
2022/06/02 13:27:04;;;;;;;0.50;0.50;;;;;;;40.34;18.34;100552.44;5351226;33;34068;-85
2022/06/02 13:30:37;;;;;;;0.65;0.60;;;;;;;40.83;18.11;100550.81;5341789;33;34276;-86
2022/06/02 13:33:58;;;;;;;0.60;0.60;;;;;;;40.65;17.80;100547.72;5344820;33;34097;-86
2022/06/02 13:37:27;;;;;;;1.75;0.50;;;;;;;40.43;17.85;100546.53;5340868;33;34793;-84
2022/06/02 13:40:44;;;;;;;0.45;0.37;;;;;;;40.93;17.81;100544.53;5314744;33;33512;-86
2022/06/02 13:44:09;;;;;;;0.52;0.40;;;;;;;41.22;18.09;100543.78;5334336;33;34058;-86
2022/06/02 13:47:36;;;;;;;0.60;0.60;;;;;;;42.18;16.23;100546.16;5349602;33;33877;-86
2022/06/02 13:51:16;;;;;;;0.50;0.50;;;;;;;39.55;18.99;100536.78;5347838;33;34250;-86
2022/06/02 13:58:47;;;;;;;0.47;0.45;;;;;;;39.76;18.67;100544.88;5348763;33;32882;-86
2022/06/02 14:01:59;;;;;;;1.10;0.60;;;;;;;39.02;19.51;100530.75;5300691;33;33515;-86
2022/06/02 14:05:34;;;;;;;0.60;0.60;;;;;;;36.57;21.40;100537.41;5344666;33;35065;-86
2022/06/02 14:09:07;;;;;;;0.50;0.50;;;;;;;34.79;22.85;100530.34;5336590;33;33701;-85
2022/06/02 14:12:23;;;;;;;0.60;0.60;;;;;;;32.72;25.00;100544.91;5349355;33;32720;-90
2022/06/02 14:15:59;;;;;;;1.10;0.65;;;;;;;32.10;26.04;100544.09;5354490;33;33797;-86
2022/06/02 14:19:20;;;;;;;0.67;0.67;;;;;;;31.46;27.98;100542.28;5346659;33;32900;-85
2022/06/02 14:22:29;;;;;;;0.70;0.70;;;;;;;30.65;28.49;100547.59;5361484;33;34135;-85
2022/06/02 14:25:56;;;;;;;0.93;0.70;;;;;;;30.18;29.06;100535.66;5345326;33;32740;-85
2022/06/02 14:29:10;;;;;;;0.90;0.90;;;;;;;29.75;30.62;100541.41;5344853;33;32200;-85
2022/06/02 14:32:56;;;;;;;1.40;1.00;;;;;;;29.07;31.03;100537.09;5330215;33;34127;-85
2022/06/02 14:36:18;;;;;;;3.80;0.90;;;;;;;29.03;30.59;100534.09;5316145;33;32517;-90
2022/06/02 14:39:38;;;;;;;0.80;0.80;;;;;;;28.99;30.75;100552.44;5345712;33;35425;-85
2022/06/02 14:43:15;;;;;;;0.60;0.60;;;;;;;28.85;31.39;100545.97;5344499;33;33605;-85
2022/06/02 14:46:28;;;;;;;0.80;0.75;;;;;;;28.67;31.27;100531.75;5358610;33;34587;-84
2022/06/02 14:49:34;;;;;;;0.70;0.70;;;;;;;28.56;31.45;100534.94;5362225;33;35547;-84
2022/06/02 14:52:59;;;;;;;0.62;0.62;;;;;;;28.36;32.87;100528.47;5362660;33;33514;-84
2022/06/02 14:56:01;;;;;;;0.90;0.65;;;;;;;28.40;32.92;100531.47;5349372;33;32415;-84
2022/06/02 14:59:26;;;;;;;0.70;0.70;;;;;;;28.23;33.35;100530.00;5349159;33;32893;-84
2022/06/02 15:02:53;;;;;;;0.82;0.82;;;;;;;28.06;32.86;100524.06;5345034;33;33679;-84
2022/06/02 15:06:01;;;;;;;2.20;1.00;;;;;;;27.88;33.29;100528.37;5348272;33;34922;-89
2022/06/02 15:09:42;;;;;;;1.77;1.05;;;;;;;27.93;33.52;100527.50;5351627;33;34281;-86
2022/06/02 15:13:05;;;;;;;1.37;1.27;;;;;;;27.96;33.61;100537.97;5346917;33;34141;-87
2022/06/02 15:16:14;;;;;;;0.60;0.60;;;;;;;27.83;34.35;100533.13;5353329;33;34399;-87
2022/06/02 15:19:35;;;;;;;;;;;;;;;27.72;34.32;100527.63;5337868;33;32949;-87
2022/06/02 15:23:27;;;;;;;0.90;0.90;;;;;;;27.44;33.64;100522.88;5344705;33;34538;-86
2022/06/02 15:26:51;;;;;;;1.20;1.10;;;;;;;27.25;33.76;100522.72;5344910;33;33972;-86
2022/06/02 15:30:28;;;;;;;1.20;1.00;;;;;;;27.10;34.61;100518.91;5344521;33;35316;-91
2022/06/02 15:34:08;;;;;;;0.88;0.70;;;;;;;26.96;34.99;100514.28;5353037;33;33642;-87
2022/06/02 15:37:29;;;;;;;0.88;0.88;;;;;;;26.86;34.95;100515.97;5356467;33;34485;-87
2022/06/02 15:40:44;;;;;;;0.80;0.80;;;;;;;26.63;35.01;100527.66;5355603;33;33873;-86
2022/06/02 15:43:53;;;;;;;0.80;0.80;;;;;;;26.55;35.31;100526.31;5380608;27;34530;-86
2022/06/02 15:47:27;;;;;;;1.10;1.00;;;;;;;26.50;34.78;100531.00;5380617;33;34101;-87
2022/06/02 15:51:07;;;;;;;1.35;0.85;;;;;;;26.44;34.66;100536.53;5379813;33;34027;-87
2022/06/02 15:54:30;;;;;;;1.75;1.10;;;;;;;26.41;34.76;100541.78;5379637;33;34395;-87
